createdAt,value
2023-02-19T00:01:53.189Z,15.00
2023-02-19T00:10:16.217Z,14.40
2023-02-19T00:18:39.609Z,13.90
2023-02-19T00:27:02.397Z,9.70
2023-02-19T00:35:25.505Z,10.00
2023-02-19T00:43:53.206Z,13.30
2023-02-19T00:52:17.558Z,8.00
2023-02-19T01:00:40.445Z,9.70
2023-02-19T01:09:05.372Z,10.10
2023-02-19T01:17:28.362Z,9.50
2023-02-19T01:25:51.220Z,9.70
2023-02-19T01:34:14.054Z,7.60
2023-02-19T01:42:43.804Z,11.30
2023-02-19T01:51:11.822Z,11.30
2023-02-19T01:59:35.058Z,8.90
2023-02-19T02:08:18.927Z,9.50
2023-02-19T02:16:58.353Z,11.60
2023-02-19T02:25:24.310Z,7.60
2023-02-19T02:33:56.355Z,13.60
2023-02-19T02:42:28.357Z,7.60
2023-02-19T02:51:06.052Z,6.10
2023-02-19T02:59:38.259Z,13.10
2023-02-19T03:08:14.132Z,26.30
2023-02-19T03:16:59.291Z,9.70
2023-02-19T03:25:45.927Z,15.20
2023-02-19T03:34:17.299Z,8.20
2023-02-19T03:43:11.367Z,9.70
2023-02-19T03:51:45.080Z,4.20
2023-02-19T04:00:14.178Z,7.80
2023-02-19T04:08:40.952Z,4.70
2023-02-19T04:17:08.801Z,7.80
2023-02-19T04:25:33.399Z,10.00
2023-02-19T04:33:57.079Z,3.50
2023-02-19T04:42:19.958Z,13.70
2023-02-19T04:50:42.945Z,2.60
2023-02-19T04:59:05.938Z,8.90
2023-02-19T05:07:28.849Z,6.50
2023-02-19T05:16:03.397Z,4.10
2023-02-19T05:24:27.661Z,3.80
2023-02-19T05:32:50.533Z,3.50
2023-02-19T05:41:17.269Z,3.60
2023-02-19T05:49:40.200Z,5.10
2023-02-19T05:58:03.557Z,5.00
2023-02-19T06:06:27.442Z,5.10
2023-02-19T06:14:51.201Z,5.70
2023-02-19T06:23:14.115Z,7.20
2023-02-19T06:31:37.037Z,5.90
2023-02-19T06:40:00.006Z,7.80
2023-02-19T06:48:22.898Z,4.60
2023-02-19T06:56:47.149Z,8.20
2023-02-19T07:05:10.117Z,9.60
2023-02-19T07:13:33.060Z,6.70
2023-02-19T07:21:55.912Z,9.00
2023-02-19T07:30:18.897Z,8.00
2023-02-19T07:38:41.733Z,12.20
2023-02-19T07:47:04.628Z,10.50
2023-02-19T07:55:27.612Z,7.70
2023-02-19T08:03:50.649Z,9.60
2023-02-19T08:12:32.358Z,8.20
2023-02-19T08:20:57.571Z,11.30
2023-02-19T08:29:20.406Z,7.80
2023-02-19T08:37:43.251Z,11.40
2023-02-19T08:46:08.072Z,11.00
2023-02-19T08:54:30.905Z,11.70
2023-02-19T09:02:53.862Z,9.30
2023-02-19T09:11:16.824Z,7.60
2023-02-19T09:19:39.765Z,6.80
2023-02-19T09:28:02.598Z,16.00
2023-02-19T09:36:25.486Z,7.80
2023-02-19T09:44:51.176Z,18.40
2023-02-19T09:53:25.593Z,9.90
2023-02-19T10:01:52.119Z,8.50
2023-02-19T10:10:14.981Z,17.50
2023-02-19T10:18:42.704Z,16.50
2023-02-19T10:27:11.726Z,14.50
2023-02-19T10:35:37.478Z,13.30
2023-02-19T10:44:21.578Z,17.70
2023-02-19T10:52:44.423Z,16.20
2023-02-19T11:01:23.968Z,13.90
2023-02-19T11:09:53.840Z,28.70
2023-02-19T11:18:35.067Z,14.30
2023-02-19T11:26:59.584Z,28.60
2023-02-19T11:35:25.338Z,23.70
2023-02-19T11:44:19.660Z,28.50
2023-02-19T11:52:56.195Z,19.20
2023-02-19T12:01:37.149Z,11.50
2023-02-19T12:10:02.997Z,6.70
2023-02-19T12:18:25.812Z,11.10
2023-02-19T12:27:20.150Z,14.60
2023-02-19T12:35:55.987Z,15.40
2023-02-19T12:44:28.096Z,17.20
2023-02-19T12:52:57.214Z,15.20
2023-02-19T13:01:31.031Z,12.90
2023-02-19T13:09:59.266Z,18.20
2023-02-19T13:18:54.205Z,21.90
2023-02-19T13:27:41.294Z,19.90
2023-02-19T13:36:12.734Z,24.20
2023-02-19T13:44:38.714Z,10.40
2023-02-19T13:53:22.368Z,11.10
2023-02-19T14:01:53.980Z,11.90
2023-02-19T14:10:42.046Z,9.30
2023-02-19T14:19:14.528Z,12.20
2023-02-19T14:27:38.342Z,12.70
2023-02-19T14:36:14.125Z,13.60
2023-02-19T14:44:49.060Z,19.80
2023-02-19T14:53:16.061Z,16.80
2023-02-19T15:01:39.319Z,23.60
2023-02-19T15:10:05.848Z,19.40
2023-02-19T15:18:30.189Z,17.20
2023-02-19T15:26:54.842Z,19.40
2023-02-19T15:35:20.003Z,13.40
2023-02-19T15:44:29.442Z,21.30
2023-02-19T15:53:04.063Z,24.40
2023-02-19T16:01:29.677Z,15.40
2023-02-19T16:10:20.939Z,13.70
2023-02-19T16:18:49.198Z,18.40
2023-02-19T16:27:14.229Z,18.30
2023-02-19T16:35:42.824Z,25.20
2023-02-19T16:44:25.907Z,18.90
2023-02-19T16:52:55.982Z,45.20
2023-02-19T17:01:19.581Z,27.80
2023-02-19T17:09:42.921Z,20.20
2023-02-19T17:18:05.962Z,13.80
2023-02-19T17:26:30.992Z,305.40
2023-02-19T17:34:53.828Z,158.00
2023-02-19T17:43:16.816Z,236.80
2023-02-19T17:51:39.652Z,192.10
2023-02-19T18:00:02.704Z,184.70
2023-02-19T18:08:35.921Z,49.50
2023-02-19T18:16:58.927Z,62.60
2023-02-19T18:25:23.037Z,17.60
2023-02-19T18:33:45.938Z,23.60
2023-02-19T18:42:08.741Z,31.20
2023-02-19T18:50:33.450Z,13.60
2023-02-19T18:58:57.609Z,16.80
2023-02-19T19:07:20.870Z,18.50
2023-02-19T19:15:45.160Z,13.60
2023-02-19T19:24:08.977Z,14.40
2023-02-19T19:32:31.754Z,11.80
2023-02-19T19:40:54.819Z,12.80
2023-02-19T19:49:19.571Z,12.60
2023-02-19T19:57:42.536Z,8.70
2023-02-19T20:06:05.581Z,11.60
2023-02-19T20:14:28.658Z,11.90
2023-02-19T20:22:52.079Z,12.70
2023-02-19T20:31:15.174Z,18.90
2023-02-19T20:39:38.260Z,12.90
2023-02-19T20:48:01.424Z,14.90
2023-02-19T20:56:24.385Z,11.00
2023-02-19T21:04:48.377Z,16.30
2023-02-19T21:13:11.596Z,8.90
2023-02-19T21:21:35.520Z,11.40
2023-02-19T21:29:58.372Z,12.30
2023-02-19T21:38:21.146Z,8.20
2023-02-19T21:46:44.079Z,9.70
2023-02-19T21:55:06.949Z,7.70
2023-02-19T22:03:29.857Z,20.60
2023-02-19T22:11:52.814Z,14.20
2023-02-19T22:20:17.330Z,23.90
2023-02-19T22:28:40.154Z,18.00
2023-02-19T22:37:03.041Z,8.40
2023-02-19T22:45:26.367Z,7.70
2023-02-19T22:53:51.699Z,12.50
2023-02-19T23:02:14.567Z,6.10
2023-02-19T23:10:37.693Z,4.80
2023-02-19T23:19:00.518Z,10.60
2023-02-19T23:27:24.350Z,7.40
2023-02-19T23:35:47.510Z,9.90
2023-02-19T23:44:10.364Z,5.30
2023-02-19T23:52:33.178Z,7.40
